sensor_id;sensor_type;location;lat;lon;timestamp;temperature;humidity
25923;DHT22;13725;51.170;4.442;2023-08-06T00:00:40;15.70;99.90
25923;DHT22;13725;51.170;4.442;2023-08-06T00:03:06;15.60;99.90
25923;DHT22;13725;51.170;4.442;2023-08-06T00:05:32;15.60;99.90
25923;DHT22;13725;51.170;4.442;2023-08-06T00:07:58;15.70;99.90
25923;DHT22;13725;51.170;4.442;2023-08-06T00:10:24;15.70;99.90
25923;DHT22;13725;51.170;4.442;2023-08-06T00:12:49;15.70;99.90
25923;DHT22;13725;51.170;4.442;2023-08-06T00:15:15;15.70;99.90
25923;DHT22;13725;51.170;4.442;2023-08-06T00:17:41;15.70;99.90
25923;DHT22;13725;51.170;4.442;2023-08-06T00:20:07;15.70;99.90
25923;DHT22;13725;51.170;4.442;2023-08-06T00:22:34;15.60;99.90
25923;DHT22;13725;51.170;4.442;2023-08-06T00:25:00;15.60;99.90
25923;DHT22;13725;51.170;4.442;2023-08-06T00:27:26;15.50;99.90
25923;DHT22;13725;51.170;4.442;2023-08-06T00:29:52;15.60;99.90
25923;DHT22;13725;51.170;4.442;2023-08-06T00:32:18;15.60;99.90
25923;DHT22;13725;51.170;4.442;2023-08-06T00:34:44;15.60;99.90
25923;DHT22;13725;51.170;4.442;2023-08-06T00:37:10;15.60;99.90
25923;DHT22;13725;51.170;4.442;2023-08-06T00:39:36;15.70;99.90
25923;DHT22;13725;51.170;4.442;2023-08-06T00:42:02;15.70;99.90
25923;DHT22;13725;51.170;4.442;2023-08-06T00:44:27;15.80;99.90
25923;DHT22;13725;51.170;4.442;2023-08-06T00:46:53;15.80;99.90
25923;DHT22;13725;51.170;4.442;2023-08-06T00:49:19;15.80;99.90
25923;DHT22;13725;51.170;4.442;2023-08-06T00:51:45;15.80;99.90
25923;DHT22;13725;51.170;4.442;2023-08-06T00:54:11;15.80;99.90
25923;DHT22;13725;51.170;4.442;2023-08-06T00:56:37;15.80;99.90
25923;DHT22;13725;51.170;4.442;2023-08-06T00:59:04;15.80;99.90
25923;DHT22;13725;51.170;4.442;2023-08-06T01:01:31;15.80;99.90
25923;DHT22;13725;51.170;4.442;2023-08-06T01:03:57;15.90;99.90
25923;DHT22;13725;51.170;4.442;2023-08-06T01:06:52;15.90;99.90
25923;DHT22;13725;51.170;4.442;2023-08-06T01:15:15;15.90;99.90
25923;DHT22;13725;51.170;4.442;2023-08-06T01:17:42;15.80;99.90
25923;DHT22;13725;51.170;4.442;2023-08-06T01:20:09;15.80;99.90
25923;DHT22;13725;51.170;4.442;2023-08-06T01:22:35;15.80;99.90
25923;DHT22;13725;51.170;4.442;2023-08-06T01:25:01;15.90;99.90
25923;DHT22;13725;51.170;4.442;2023-08-06T01:27:38;15.90;99.90
25923;DHT22;13725;51.170;4.442;2023-08-06T01:30:36;15.90;99.90
25923;DHT22;13725;51.170;4.442;2023-08-06T01:33:05;15.80;99.90
25923;DHT22;13725;51.170;4.442;2023-08-06T01:35:32;15.80;99.90
25923;DHT22;13725;51.170;4.442;2023-08-06T01:38:02;15.80;99.90
25923;DHT22;13725;51.170;4.442;2023-08-06T01:40:30;15.80;99.90
25923;DHT22;13725;51.170;4.442;2023-08-06T01:42:56;15.80;99.90
25923;DHT22;13725;51.170;4.442;2023-08-06T01:45:22;15.90;99.90
25923;DHT22;13725;51.170;4.442;2023-08-06T01:47:49;15.80;99.90
25923;DHT22;13725;51.170;4.442;2023-08-06T01:50:15;15.80;99.90
25923;DHT22;13725;51.170;4.442;2023-08-06T01:52:40;15.80;99.90
25923;DHT22;13725;51.170;4.442;2023-08-06T01:55:06;15.90;99.90
25923;DHT22;13725;51.170;4.442;2023-08-06T01:57:32;15.90;99.90
25923;DHT22;13725;51.170;4.442;2023-08-06T01:59:58;15.90;99.90
25923;DHT22;13725;51.170;4.442;2023-08-06T02:02:24;16.00;99.90
25923;DHT22;13725;51.170;4.442;2023-08-06T02:04:50;16.00;99.90
25923;DHT22;13725;51.170;4.442;2023-08-06T02:07:15;16.00;99.90
25923;DHT22;13725;51.170;4.442;2023-08-06T02:09:41;16.00;99.90
25923;DHT22;13725;51.170;4.442;2023-08-06T02:12:07;16.00;99.90
25923;DHT22;13725;51.170;4.442;2023-08-06T02:14:33;16.10;99.90
25923;DHT22;13725;51.170;4.442;2023-08-06T02:16:59;16.10;99.90
25923;DHT22;13725;51.170;4.442;2023-08-06T02:19:25;16.10;99.90
25923;DHT22;13725;51.170;4.442;2023-08-06T02:21:51;16.10;99.90
25923;DHT22;13725;51.170;4.442;2023-08-06T02:24:16;16.10;99.90
25923;DHT22;13725;51.170;4.442;2023-08-06T02:26:42;16.10;99.90
25923;DHT22;13725;51.170;4.442;2023-08-06T02:29:08;16.10;99.90
25923;DHT22;13725;51.170;4.442;2023-08-06T02:31:34;16.20;99.90
25923;DHT22;13725;51.170;4.442;2023-08-06T02:34:00;16.20;99.90
25923;DHT22;13725;51.170;4.442;2023-08-06T02:36:26;16.20;99.90
25923;DHT22;13725;51.170;4.442;2023-08-06T02:38:55;16.20;99.90
25923;DHT22;13725;51.170;4.442;2023-08-06T02:41:22;16.10;99.90
25923;DHT22;13725;51.170;4.442;2023-08-06T02:43:47;16.10;99.90
25923;DHT22;13725;51.170;4.442;2023-08-06T02:46:13;16.10;99.90
25923;DHT22;13725;51.170;4.442;2023-08-06T02:48:39;16.10;99.90
25923;DHT22;13725;51.170;4.442;2023-08-06T02:51:05;16.10;99.90
25923;DHT22;13725;51.170;4.442;2023-08-06T02:53:32;16.10;99.90
25923;DHT22;13725;51.170;4.442;2023-08-06T02:56:00;16.10;99.90
25923;DHT22;13725;51.170;4.442;2023-08-06T02:58:34;16.10;99.90
25923;DHT22;13725;51.170;4.442;2023-08-06T03:01:10;16.00;99.90
25923;DHT22;13725;51.170;4.442;2023-08-06T03:03:45;16.10;99.90
25923;DHT22;13725;51.170;4.442;2023-08-06T03:06:18;16.10;99.90
25923;DHT22;13725;51.170;4.442;2023-08-06T03:08:48;16.00;99.90
25923;DHT22;13725;51.170;4.442;2023-08-06T03:11:13;16.00;99.90
25923;DHT22;13725;51.170;4.442;2023-08-06T03:13:40;16.00;99.90
25923;DHT22;13725;51.170;4.442;2023-08-06T03:16:06;16.10;99.90
25923;DHT22;13725;51.170;4.442;2023-08-06T03:18:33;16.00;99.90
25923;DHT22;13725;51.170;4.442;2023-08-06T03:21:02;16.00;99.90
25923;DHT22;13725;51.170;4.442;2023-08-06T03:23:29;16.00;99.90
25923;DHT22;13725;51.170;4.442;2023-08-06T03:25:56;16.00;99.90
25923;DHT22;13725;51.170;4.442;2023-08-06T03:28:23;16.00;99.90
25923;DHT22;13725;51.170;4.442;2023-08-06T03:31:01;16.00;99.90
25923;DHT22;13725;51.170;4.442;2023-08-06T03:33:32;16.00;99.90
25923;DHT22;13725;51.170;4.442;2023-08-06T03:35:59;15.90;99.90
25923;DHT22;13725;51.170;4.442;2023-08-06T03:38:25;15.90;99.90
25923;DHT22;13725;51.170;4.442;2023-08-06T03:40:54;16.00;99.90
25923;DHT22;13725;51.170;4.442;2023-08-06T03:43:20;15.80;99.90
25923;DHT22;13725;51.170;4.442;2023-08-06T03:45:46;15.80;99.90
25923;DHT22;13725;51.170;4.442;2023-08-06T03:48:11;15.70;99.90
25923;DHT22;13725;51.170;4.442;2023-08-06T03:50:37;15.60;99.90
25923;DHT22;13725;51.170;4.442;2023-08-06T03:53:04;15.60;99.90
25923;DHT22;13725;51.170;4.442;2023-08-06T03:55:30;15.60;99.90
25923;DHT22;13725;51.170;4.442;2023-08-06T03:57:56;15.70;99.90
25923;DHT22;13725;51.170;4.442;2023-08-06T04:00:22;15.70;99.90
25923;DHT22;13725;51.170;4.442;2023-08-06T04:02:52;15.70;99.90
25923;DHT22;13725;51.170;4.442;2023-08-06T04:05:18;15.60;99.90
25923;DHT22;13725;51.170;4.442;2023-08-06T04:07:44;15.50;99.90
25923;DHT22;13725;51.170;4.442;2023-08-06T04:10:10;15.50;99.90
25923;DHT22;13725;51.170;4.442;2023-08-06T04:12:36;15.50;99.90
25923;DHT22;13725;51.170;4.442;2023-08-06T04:15:05;15.40;99.90
25923;DHT22;13725;51.170;4.442;2023-08-06T04:17:31;15.50;99.90
25923;DHT22;13725;51.170;4.442;2023-08-06T04:19:56;15.50;99.90
25923;DHT22;13725;51.170;4.442;2023-08-06T04:22:26;15.50;99.90
25923;DHT22;13725;51.170;4.442;2023-08-06T04:24:52;15.50;99.90
25923;DHT22;13725;51.170;4.442;2023-08-06T04:27:19;15.30;99.90
25923;DHT22;13725;51.170;4.442;2023-08-06T04:29:46;15.20;99.90
25923;DHT22;13725;51.170;4.442;2023-08-06T04:32:13;15.10;99.90
25923;DHT22;13725;51.170;4.442;2023-08-06T04:34:43;15.00;99.90
25923;DHT22;13725;51.170;4.442;2023-08-06T04:37:09;15.00;99.90
25923;DHT22;13725;51.170;4.442;2023-08-06T04:39:35;14.90;99.90
25923;DHT22;13725;51.170;4.442;2023-08-06T04:42:02;14.70;99.90
25923;DHT22;13725;51.170;4.442;2023-08-06T04:44:28;14.60;99.90
25923;DHT22;13725;51.170;4.442;2023-08-06T04:46:54;14.60;99.90
25923;DHT22;13725;51.170;4.442;2023-08-06T04:49:23;14.50;99.90
25923;DHT22;13725;51.170;4.442;2023-08-06T04:51:49;14.40;99.90
25923;DHT22;13725;51.170;4.442;2023-08-06T04:54:14;14.40;99.90
25923;DHT22;13725;51.170;4.442;2023-08-06T04:56:40;14.40;99.90
25923;DHT22;13725;51.170;4.442;2023-08-06T04:59:06;14.30;99.90
25923;DHT22;13725;51.170;4.442;2023-08-06T05:01:33;14.30;99.90
25923;DHT22;13725;51.170;4.442;2023-08-06T05:03:58;14.40;99.90
25923;DHT22;13725;51.170;4.442;2023-08-06T05:06:24;14.40;99.90
25923;DHT22;13725;51.170;4.442;2023-08-06T05:08:50;14.40;99.90
25923;DHT22;13725;51.170;4.442;2023-08-06T05:11:15;14.50;99.90
25923;DHT22;13725;51.170;4.442;2023-08-06T05:13:41;14.40;99.90
25923;DHT22;13725;51.170;4.442;2023-08-06T05:16:07;14.40;99.90
25923;DHT22;13725;51.170;4.442;2023-08-06T05:18:33;14.30;99.90
25923;DHT22;13725;51.170;4.442;2023-08-06T05:21:00;14.40;99.90
25923;DHT22;13725;51.170;4.442;2023-08-06T05:23:25;14.40;99.90
25923;DHT22;13725;51.170;4.442;2023-08-06T05:25:51;14.40;99.90
25923;DHT22;13725;51.170;4.442;2023-08-06T05:28:17;14.40;99.90
25923;DHT22;13725;51.170;4.442;2023-08-06T05:30:43;14.40;99.90
25923;DHT22;13725;51.170;4.442;2023-08-06T05:33:08;14.50;99.90
25923;DHT22;13725;51.170;4.442;2023-08-06T05:35:34;14.50;99.90
25923;DHT22;13725;51.170;4.442;2023-08-06T05:38:00;14.50;99.90
25923;DHT22;13725;51.170;4.442;2023-08-06T05:40:26;14.60;99.90
25923;DHT22;13725;51.170;4.442;2023-08-06T05:42:54;14.60;99.90
25923;DHT22;13725;51.170;4.442;2023-08-06T05:45:20;14.60;99.90
25923;DHT22;13725;51.170;4.442;2023-08-06T05:47:48;14.70;99.90
25923;DHT22;13725;51.170;4.442;2023-08-06T05:50:14;14.80;99.90
25923;DHT22;13725;51.170;4.442;2023-08-06T05:52:39;14.80;99.90
25923;DHT22;13725;51.170;4.442;2023-08-06T05:55:06;14.80;99.90
25923;DHT22;13725;51.170;4.442;2023-08-06T05:57:31;14.80;99.90
25923;DHT22;13725;51.170;4.442;2023-08-06T05:59:57;14.80;99.90
25923;DHT22;13725;51.170;4.442;2023-08-06T06:02:23;14.80;99.90
25923;DHT22;13725;51.170;4.442;2023-08-06T06:04:49;14.80;99.90
25923;DHT22;13725;51.170;4.442;2023-08-06T06:07:14;14.80;99.90
25923;DHT22;13725;51.170;4.442;2023-08-06T06:09:40;14.80;99.90
25923;DHT22;13725;51.170;4.442;2023-08-06T06:12:06;14.70;99.90
25923;DHT22;13725;51.170;4.442;2023-08-06T06:14:32;14.60;99.90
25923;DHT22;13725;51.170;4.442;2023-08-06T06:16:59;14.60;99.90
25923;DHT22;13725;51.170;4.442;2023-08-06T06:19:25;14.60;99.90
25923;DHT22;13725;51.170;4.442;2023-08-06T06:21:51;14.60;99.90
25923;DHT22;13725;51.170;4.442;2023-08-06T06:24:18;14.60;99.90
25923;DHT22;13725;51.170;4.442;2023-08-06T06:26:44;14.60;99.90
25923;DHT22;13725;51.170;4.442;2023-08-06T06:29:11;14.60;99.90
25923;DHT22;13725;51.170;4.442;2023-08-06T06:31:37;14.60;99.90
25923;DHT22;13725;51.170;4.442;2023-08-06T06:34:02;14.60;99.90
25923;DHT22;13725;51.170;4.442;2023-08-06T06:36:28;14.60;99.90
25923;DHT22;13725;51.170;4.442;2023-08-06T06:38:54;14.50;99.90
25923;DHT22;13725;51.170;4.442;2023-08-06T06:41:20;14.40;99.90
25923;DHT22;13725;51.170;4.442;2023-08-06T06:43:45;14.50;99.90
25923;DHT22;13725;51.170;4.442;2023-08-06T06:46:11;14.60;99.90
25923;DHT22;13725;51.170;4.442;2023-08-06T06:48:37;14.70;99.90
25923;DHT22;13725;51.170;4.442;2023-08-06T06:51:02;14.80;99.90
25923;DHT22;13725;51.170;4.442;2023-08-06T06:53:28;14.90;99.90
25923;DHT22;13725;51.170;4.442;2023-08-06T06:56:04;14.90;99.90
25923;DHT22;13725;51.170;4.442;2023-08-06T06:58:31;14.90;99.90
25923;DHT22;13725;51.170;4.442;2023-08-06T07:00:57;15.00;99.90
25923;DHT22;13725;51.170;4.442;2023-08-06T07:03:23;15.00;99.90
25923;DHT22;13725;51.170;4.442;2023-08-06T07:05:50;15.10;99.90
25923;DHT22;13725;51.170;4.442;2023-08-06T07:08:15;15.10;99.90
25923;DHT22;13725;51.170;4.442;2023-08-06T07:10:41;15.10;99.90
25923;DHT22;13725;51.170;4.442;2023-08-06T07:13:08;15.00;99.90
25923;DHT22;13725;51.170;4.442;2023-08-06T07:15:34;15.00;99.90
25923;DHT22;13725;51.170;4.442;2023-08-06T07:18:00;15.00;99.90
25923;DHT22;13725;51.170;4.442;2023-08-06T07:20:26;15.00;99.90
25923;DHT22;13725;51.170;4.442;2023-08-06T07:22:54;15.00;99.90
25923;DHT22;13725;51.170;4.442;2023-08-06T07:25:20;15.00;99.90
25923;DHT22;13725;51.170;4.442;2023-08-06T07:27:47;15.10;99.90
25923;DHT22;13725;51.170;4.442;2023-08-06T07:30:13;15.20;99.90
25923;DHT22;13725;51.170;4.442;2023-08-06T07:32:39;15.10;99.90
25923;DHT22;13725;51.170;4.442;2023-08-06T07:35:05;15.10;99.90
25923;DHT22;13725;51.170;4.442;2023-08-06T07:37:31;15.20;99.90
25923;DHT22;13725;51.170;4.442;2023-08-06T07:39:57;15.10;99.90
25923;DHT22;13725;51.170;4.442;2023-08-06T07:42:23;15.10;99.90
25923;DHT22;13725;51.170;4.442;2023-08-06T07:44:59;15.30;99.90
25923;DHT22;13725;51.170;4.442;2023-08-06T07:47:25;15.30;99.90
25923;DHT22;13725;51.170;4.442;2023-08-06T07:49:50;15.30;99.90
25923;DHT22;13725;51.170;4.442;2023-08-06T07:52:17;15.30;99.90
25923;DHT22;13725;51.170;4.442;2023-08-06T07:54:43;15.30;99.90
25923;DHT22;13725;51.170;4.442;2023-08-06T07:57:09;15.40;99.90
25923;DHT22;13725;51.170;4.442;2023-08-06T07:59:35;15.50;99.90
25923;DHT22;13725;51.170;4.442;2023-08-06T08:02:01;15.50;99.90
25923;DHT22;13725;51.170;4.442;2023-08-06T08:04:27;15.50;99.90
25923;DHT22;13725;51.170;4.442;2023-08-06T08:06:55;15.50;99.90
25923;DHT22;13725;51.170;4.442;2023-08-06T08:09:20;15.70;99.90
25923;DHT22;13725;51.170;4.442;2023-08-06T08:11:46;15.90;99.90
25923;DHT22;13725;51.170;4.442;2023-08-06T08:14:12;15.90;99.90
25923;DHT22;13725;51.170;4.442;2023-08-06T08:16:38;16.00;99.90
25923;DHT22;13725;51.170;4.442;2023-08-06T08:19:04;16.10;99.90
25923;DHT22;13725;51.170;4.442;2023-08-06T08:21:30;16.40;99.90
25923;DHT22;13725;51.170;4.442;2023-08-06T08:23:55;16.40;99.90
25923;DHT22;13725;51.170;4.442;2023-08-06T08:26:21;16.30;99.90
25923;DHT22;13725;51.170;4.442;2023-08-06T08:28:47;16.20;99.90
25923;DHT22;13725;51.170;4.442;2023-08-06T08:31:13;16.10;99.90
25923;DHT22;13725;51.170;4.442;2023-08-06T08:33:39;16.00;99.90
25923;DHT22;13725;51.170;4.442;2023-08-06T08:36:05;15.90;99.90
25923;DHT22;13725;51.170;4.442;2023-08-06T08:38:31;16.10;99.90
25923;DHT22;13725;51.170;4.442;2023-08-06T08:40:56;16.20;99.90
25923;DHT22;13725;51.170;4.442;2023-08-06T08:43:23;16.50;99.90
25923;DHT22;13725;51.170;4.442;2023-08-06T08:45:53;16.60;99.90
25923;DHT22;13725;51.170;4.442;2023-08-06T08:48:24;16.70;99.90
25923;DHT22;13725;51.170;4.442;2023-08-06T08:50:52;16.80;99.90
25923;DHT22;13725;51.170;4.442;2023-08-06T08:53:18;17.00;99.90
25923;DHT22;13725;51.170;4.442;2023-08-06T08:55:48;17.20;99.90
25923;DHT22;13725;51.170;4.442;2023-08-06T08:58:14;17.30;99.90
25923;DHT22;13725;51.170;4.442;2023-08-06T09:00:45;17.30;99.90
25923;DHT22;13725;51.170;4.442;2023-08-06T09:03:11;17.40;99.90
25923;DHT22;13725;51.170;4.442;2023-08-06T09:05:43;17.30;99.90
25923;DHT22;13725;51.170;4.442;2023-08-06T09:08:11;17.00;99.90
25923;DHT22;13725;51.170;4.442;2023-08-06T09:10:43;17.20;99.90
25923;DHT22;13725;51.170;4.442;2023-08-06T09:13:09;17.30;99.90
25923;DHT22;13725;51.170;4.442;2023-08-06T09:15:38;17.00;99.90
25923;DHT22;13725;51.170;4.442;2023-08-06T09:18:10;16.90;99.90
25923;DHT22;13725;51.170;4.442;2023-08-06T09:20:40;16.80;99.90
25923;DHT22;13725;51.170;4.442;2023-08-06T09:23:10;16.70;99.90
25923;DHT22;13725;51.170;4.442;2023-08-06T09:25:38;16.50;99.90
25923;DHT22;13725;51.170;4.442;2023-08-06T09:28:07;16.30;99.90
25923;DHT22;13725;51.170;4.442;2023-08-06T09:30:37;16.20;99.90
25923;DHT22;13725;51.170;4.442;2023-08-06T09:33:03;16.30;99.90
25923;DHT22;13725;51.170;4.442;2023-08-06T09:35:30;16.40;99.90
25923;DHT22;13725;51.170;4.442;2023-08-06T09:38:17;16.40;99.90
25923;DHT22;13725;51.170;4.442;2023-08-06T09:40:42;16.30;99.90
25923;DHT22;13725;51.170;4.442;2023-08-06T09:43:08;16.00;99.90
25923;DHT22;13725;51.170;4.442;2023-08-06T09:45:35;16.10;99.90
25923;DHT22;13725;51.170;4.442;2023-08-06T09:48:09;16.00;99.90
25923;DHT22;13725;51.170;4.442;2023-08-06T09:50:37;16.00;99.90
25923;DHT22;13725;51.170;4.442;2023-08-06T09:53:05;16.00;99.90
25923;DHT22;13725;51.170;4.442;2023-08-06T09:55:32;15.80;99.90
25923;DHT22;13725;51.170;4.442;2023-08-06T09:57:59;15.70;99.90
25923;DHT22;13725;51.170;4.442;2023-08-06T10:00:25;15.60;99.90
25923;DHT22;13725;51.170;4.442;2023-08-06T10:02:52;15.50;99.90
25923;DHT22;13725;51.170;4.442;2023-08-06T10:05:22;15.50;99.90
25923;DHT22;13725;51.170;4.442;2023-08-06T10:07:49;15.30;99.90
25923;DHT22;13725;51.170;4.442;2023-08-06T10:10:16;15.30;99.90
25923;DHT22;13725;51.170;4.442;2023-08-06T10:12:48;15.40;99.90
25923;DHT22;13725;51.170;4.442;2023-08-06T10:15:16;15.40;99.90
25923;DHT22;13725;51.170;4.442;2023-08-06T10:17:43;15.30;99.90
25923;DHT22;13725;51.170;4.442;2023-08-06T10:20:11;15.40;99.90
25923;DHT22;13725;51.170;4.442;2023-08-06T10:22:43;15.70;99.90
25923;DHT22;13725;51.170;4.442;2023-08-06T10:25:10;15.90;99.90
25923;DHT22;13725;51.170;4.442;2023-08-06T10:27:40;16.10;99.90
25923;DHT22;13725;51.170;4.442;2023-08-06T10:30:32;16.30;99.90
25923;DHT22;13725;51.170;4.442;2023-08-06T10:33:02;16.50;99.90
25923;DHT22;13725;51.170;4.442;2023-08-06T10:35:41;16.40;99.90
25923;DHT22;13725;51.170;4.442;2023-08-06T10:38:20;16.20;99.90
25923;DHT22;13725;51.170;4.442;2023-08-06T10:43:28;16.20;99.90
25923;DHT22;13725;51.170;4.442;2023-08-06T10:45:55;16.20;99.90
25923;DHT22;13725;51.170;4.442;2023-08-06T10:48:41;16.00;99.90
25923;DHT22;13725;51.170;4.442;2023-08-06T10:51:11;15.90;99.90
25923;DHT22;13725;51.170;4.442;2023-08-06T10:53:38;15.60;99.90
25923;DHT22;13725;51.170;4.442;2023-08-06T10:56:18;15.70;99.90
25923;DHT22;13725;51.170;4.442;2023-08-06T10:58:48;15.70;99.90
25923;DHT22;13725;51.170;4.442;2023-08-06T11:01:14;15.90;99.90
25923;DHT22;13725;51.170;4.442;2023-08-06T11:03:42;16.00;99.90
25923;DHT22;13725;51.170;4.442;2023-08-06T11:06:08;16.10;99.90
25923;DHT22;13725;51.170;4.442;2023-08-06T11:08:36;16.10;99.90
25923;DHT22;13725;51.170;4.442;2023-08-06T11:11:09;16.10;99.90
25923;DHT22;13725;51.170;4.442;2023-08-06T11:13:48;16.10;99.90
25923;DHT22;13725;51.170;4.442;2023-08-06T11:16:25;16.20;99.90
25923;DHT22;13725;51.170;4.442;2023-08-06T11:18:52;16.40;99.90
25923;DHT22;13725;51.170;4.442;2023-08-06T11:21:20;16.70;99.90
25923;DHT22;13725;51.170;4.442;2023-08-06T11:23:46;16.80;99.90
25923;DHT22;13725;51.170;4.442;2023-08-06T11:26:12;17.10;99.90
25923;DHT22;13725;51.170;4.442;2023-08-06T11:28:43;17.30;99.90
25923;DHT22;13725;51.170;4.442;2023-08-06T11:31:19;17.70;99.90
25923;DHT22;13725;51.170;4.442;2023-08-06T11:33:44;17.90;99.90
25923;DHT22;13725;51.170;4.442;2023-08-06T11:36:10;18.00;99.90
25923;DHT22;13725;51.170;4.442;2023-08-06T11:38:36;18.30;99.90
25923;DHT22;13725;51.170;4.442;2023-08-06T11:41:02;17.80;99.90
25923;DHT22;13725;51.170;4.442;2023-08-06T11:43:30;17.70;99.90
25923;DHT22;13725;51.170;4.442;2023-08-06T11:45:56;17.50;99.90
25923;DHT22;13725;51.170;4.442;2023-08-06T11:48:22;17.30;99.90
25923;DHT22;13725;51.170;4.442;2023-08-06T11:50:48;17.00;99.90
25923;DHT22;13725;51.170;4.442;2023-08-06T11:53:14;16.70;99.90
25923;DHT22;13725;51.170;4.442;2023-08-06T11:55:40;16.60;99.90
25923;DHT22;13725;51.170;4.442;2023-08-06T11:58:06;16.60;99.90
25923;DHT22;13725;51.170;4.442;2023-08-06T12:00:36;16.50;99.90
25923;DHT22;13725;51.170;4.442;2023-08-06T12:03:05;16.40;99.90
25923;DHT22;13725;51.170;4.442;2023-08-06T12:05:31;16.20;99.90
25923;DHT22;13725;51.170;4.442;2023-08-06T12:08:00;16.30;99.90
25923;DHT22;13725;51.170;4.442;2023-08-06T12:10:29;16.40;99.90
25923;DHT22;13725;51.170;4.442;2023-08-06T12:12:55;16.60;99.90
25923;DHT22;13725;51.170;4.442;2023-08-06T12:15:22;16.70;99.90
25923;DHT22;13725;51.170;4.442;2023-08-06T12:17:49;16.50;99.90
25923;DHT22;13725;51.170;4.442;2023-08-06T12:20:15;16.30;99.90
25923;DHT22;13725;51.170;4.442;2023-08-06T12:22:41;16.30;99.90
25923;DHT22;13725;51.170;4.442;2023-08-06T12:25:09;16.20;99.90
25923;DHT22;13725;51.170;4.442;2023-08-06T12:27:42;16.40;99.90
25923;DHT22;13725;51.170;4.442;2023-08-06T12:30:09;16.40;99.90
25923;DHT22;13725;51.170;4.442;2023-08-06T12:32:35;16.30;99.90
25923;DHT22;13725;51.170;4.442;2023-08-06T12:35:01;16.40;99.90
25923;DHT22;13725;51.170;4.442;2023-08-06T12:37:28;16.50;99.90
25923;DHT22;13725;51.170;4.442;2023-08-06T12:39:53;16.50;99.90
25923;DHT22;13725;51.170;4.442;2023-08-06T12:42:19;16.60;99.90
25923;DHT22;13725;51.170;4.442;2023-08-06T12:44:45;16.60;99.90
25923;DHT22;13725;51.170;4.442;2023-08-06T12:47:11;16.60;99.90
25923;DHT22;13725;51.170;4.442;2023-08-06T12:49:37;16.50;99.90
25923;DHT22;13725;51.170;4.442;2023-08-06T12:52:03;16.40;99.90
25923;DHT22;13725;51.170;4.442;2023-08-06T12:54:32;16.20;99.90
25923;DHT22;13725;51.170;4.442;2023-08-06T12:57:04;16.10;99.90
25923;DHT22;13725;51.170;4.442;2023-08-06T12:59:30;15.90;99.90
25923;DHT22;13725;51.170;4.442;2023-08-06T13:01:56;15.80;99.90
25923;DHT22;13725;51.170;4.442;2023-08-06T13:04:23;15.70;99.90
25923;DHT22;13725;51.170;4.442;2023-08-06T13:06:49;15.60;99.90
25923;DHT22;13725;51.170;4.442;2023-08-06T13:09:15;15.60;99.90
25923;DHT22;13725;51.170;4.442;2023-08-06T13:11:41;15.60;99.90
25923;DHT22;13725;51.170;4.442;2023-08-06T13:14:09;15.50;99.90
25923;DHT22;13725;51.170;4.442;2023-08-06T13:16:37;15.50;99.90
25923;DHT22;13725;51.170;4.442;2023-08-06T13:19:03;15.50;99.90
25923;DHT22;13725;51.170;4.442;2023-08-06T13:21:34;15.50;99.90
25923;DHT22;13725;51.170;4.442;2023-08-06T13:24:03;15.20;99.90
25923;DHT22;13725;51.170;4.442;2023-08-06T13:26:30;15.20;99.90
25923;DHT22;13725;51.170;4.442;2023-08-06T13:28:57;15.00;99.90
25923;DHT22;13725;51.170;4.442;2023-08-06T13:31:23;15.00;99.90
25923;DHT22;13725;51.170;4.442;2023-08-06T13:33:49;15.00;99.90
25923;DHT22;13725;51.170;4.442;2023-08-06T13:36:16;15.00;99.90
25923;DHT22;13725;51.170;4.442;2023-08-06T13:38:42;15.00;99.90
25923;DHT22;13725;51.170;4.442;2023-08-06T13:41:08;15.00;99.90
25923;DHT22;13725;51.170;4.442;2023-08-06T13:43:35;15.00;99.90
25923;DHT22;13725;51.170;4.442;2023-08-06T13:46:02;15.00;99.90
25923;DHT22;13725;51.170;4.442;2023-08-06T13:48:28;14.90;99.90
25923;DHT22;13725;51.170;4.442;2023-08-06T13:50:54;14.90;99.90
25923;DHT22;13725;51.170;4.442;2023-08-06T13:53:19;14.80;99.90
25923;DHT22;13725;51.170;4.442;2023-08-06T13:55:45;14.90;99.90
25923;DHT22;13725;51.170;4.442;2023-08-06T13:58:11;15.00;99.90
25923;DHT22;13725;51.170;4.442;2023-08-06T14:00:37;15.10;99.90
25923;DHT22;13725;51.170;4.442;2023-08-06T14:03:03;15.20;99.90
25923;DHT22;13725;51.170;4.442;2023-08-06T14:05:29;15.20;99.90
25923;DHT22;13725;51.170;4.442;2023-08-06T14:07:55;15.30;99.90
25923;DHT22;13725;51.170;4.442;2023-08-06T14:10:20;15.40;99.90
25923;DHT22;13725;51.170;4.442;2023-08-06T14:12:47;15.20;99.90
25923;DHT22;13725;51.170;4.442;2023-08-06T14:15:13;15.30;99.90
25923;DHT22;13725;51.170;4.442;2023-08-06T14:17:39;15.40;99.90
25923;DHT22;13725;51.170;4.442;2023-08-06T14:20:06;15.50;99.90
25923;DHT22;13725;51.170;4.442;2023-08-06T14:22:35;15.50;99.90
25923;DHT22;13725;51.170;4.442;2023-08-06T14:25:01;15.60;99.90
25923;DHT22;13725;51.170;4.442;2023-08-06T14:27:28;15.70;99.90
25923;DHT22;13725;51.170;4.442;2023-08-06T14:29:54;15.60;99.90
25923;DHT22;13725;51.170;4.442;2023-08-06T14:32:19;15.60;99.90
25923;DHT22;13725;51.170;4.442;2023-08-06T14:34:45;15.60;99.90
25923;DHT22;13725;51.170;4.442;2023-08-06T14:37:11;15.70;99.90
25923;DHT22;13725;51.170;4.442;2023-08-06T14:39:37;15.80;99.90
25923;DHT22;13725;51.170;4.442;2023-08-06T14:42:04;15.90;99.90
25923;DHT22;13725;51.170;4.442;2023-08-06T14:44:30;16.10;99.90
25923;DHT22;13725;51.170;4.442;2023-08-06T14:46:56;16.10;99.90
25923;DHT22;13725;51.170;4.442;2023-08-06T14:49:23;16.20;99.90
25923;DHT22;13725;51.170;4.442;2023-08-06T14:51:49;16.30;99.90
25923;DHT22;13725;51.170;4.442;2023-08-06T14:54:15;16.20;99.90
25923;DHT22;13725;51.170;4.442;2023-08-06T14:56:40;16.20;99.90
25923;DHT22;13725;51.170;4.442;2023-08-06T14:59:06;16.30;99.90
25923;DHT22;13725;51.170;4.442;2023-08-06T15:01:32;16.10;99.90
25923;DHT22;13725;51.170;4.442;2023-08-06T15:03:58;16.20;99.90
25923;DHT22;13725;51.170;4.442;2023-08-06T15:06:24;16.10;99.90
25923;DHT22;13725;51.170;4.442;2023-08-06T15:08:50;16.10;99.90
25923;DHT22;13725;51.170;4.442;2023-08-06T15:11:16;16.20;99.90
25923;DHT22;13725;51.170;4.442;2023-08-06T15:13:42;16.30;99.90
25923;DHT22;13725;51.170;4.442;2023-08-06T15:16:07;16.30;99.90
25923;DHT22;13725;51.170;4.442;2023-08-06T15:18:33;16.40;99.90
25923;DHT22;13725;51.170;4.442;2023-08-06T15:21:00;16.40;99.90
25923;DHT22;13725;51.170;4.442;2023-08-06T15:23:26;16.30;99.90
25923;DHT22;13725;51.170;4.442;2023-08-06T15:25:52;16.20;99.90
25923;DHT22;13725;51.170;4.442;2023-08-06T15:28:17;16.10;99.90
25923;DHT22;13725;51.170;4.442;2023-08-06T15:30:50;16.00;99.90
25923;DHT22;13725;51.170;4.442;2023-08-06T15:33:20;15.80;99.90
25923;DHT22;13725;51.170;4.442;2023-08-06T15:35:46;15.60;99.90
25923;DHT22;13725;51.170;4.442;2023-08-06T15:38:12;15.40;99.90